• Join FlightAware (Why Join?)
  • Login
  • US Flag 
12:17PM EDT


 

Airport Tracker/Info


-or-


 

Live Flight TrackerFlight Track Log ✈ ASQ5361 ✈ 18-Apr-2013 ✈ KDTW - KEWR

Flight Track Log - Related Links

Times and Time Zones

All times are in EDT time to prevent confusion due to time zone crossing. See the ASQ5361 flight status page for this flight to view local times or setup timezone preferences in your user account.

Time Position Orientation Groundspeed Altitude Reporting Facility
EDT Latitude Longitude Course Direction KTS MPH feet Rate Location/Type
11:18PM 42.1989 -83.3572 186° South 148 170 1,500  Level FAA TRACON SMA TRACON (SMA)
11:19PM 42.1828 -83.3594 186° South 182 209 1,700 900 Climbing FAA TRACON SMA TRACON (SMA)
11:19PM 42.1689 -83.3617 187° South 199 229 2,100 1,800 Climbing FAA TRACON SMA TRACON (SMA)
11:19PM 42.1442 -83.3647 185° South 222 255 2,900 2,220 Climbing FAA TRACON SMA TRACON (SMA)
11:20PM 42.1250 -83.3661 183° South 233 268 3,600 2,580 Climbing FAA TRACON SMA TRACON (SMA)
11:20PM 42.1003 -83.3672 182° South 236 272 4,700 2,820 Climbing FAA TRACON SMA TRACON (SMA)
11:20PM 42.0806 -83.3667 179° South 233 268 5,500 2,580 Climbing FAA TRACON SMA TRACON (SMA)
11:21PM 42.0642 -83.3475 139° Southeast 257 296 6,400 2,400 Climbing FAA TRACON SMA TRACON (SMA)
11:21PM 42.0597 -83.3161 101° East 286 329 7,100 2,700 Climbing FAA TRACON SMA TRACON (SMA)
11:21PM 42.0642 -83.2725 82° East 300 345 8,200 2,460 Climbing FAA TRACON SMA TRACON (SMA)
11:22PM 42.0694 -83.2367 79° East 315 362 8,800 1,800 Climbing FAA TRACON SMA TRACON (SMA)
11:22PM 42.0747 -83.2042 78° East 321 369 9,400 1,800 Climbing FAA TRACON SMA TRACON (SMA)
11:22PM 42.0853 -83.1539 74° East 342 394 10,000 1,320 Climbing FAA TRACON SMA TRACON (SMA)
11:23PM 42.0931 -83.1144 75° East 352 405 10,300 1,200 Climbing FAA TRACON SMA TRACON (SMA)
11:23PM 42.1017 -83.0733 74° East 368 423 10,800 1,620 Climbing FAA TRACON SMA TRACON (SMA)
11:23PM 42.1119 -83.0203 75° East 379 436 11,400 1,800 Climbing FAA TRACON SMA TRACON (SMA)
11:24PM 42.1200 -82.9764 76° East 385 443 12,000 1,800 Climbing FAA TRACON SMA TRACON (SMA)
11:24PM 42.1289 -82.9333 74° East 388 447 12,600 1,920 Climbing FAA TRACON SMA TRACON (SMA)
11:24PM 42.1403 -82.8819 73° East 395 455 13,300 1,920 Climbing FAA TRACON SMA TRACON (SMA)
11:25PM 42.1494 -82.8333 76° East 397 457 13,900 1,920 Climbing FAA TRACON SMA TRACON (SMA)
11:25PM 42.1517 -82.7758 87° East 395 455 14,600 1,620 Climbing FAA TRACON SMA TRACON (SMA)
11:25PM 42.1481 -82.7336 97° East 393 452 15,000 1,140 Climbing FAA TRACON SMA TRACON (SMA)
11:26PM 42.1422 -82.6869 100° East 390 449 15,400 900 Climbing FAA TRACON SMA TRACON (SMA)
11:26PM 42.1411 -82.6758 98° East 391 450 15,600 1,560 Climbing FAA TRACON SMA TRACON (SMA)
11:27PM 42.1264 -82.5569 99° East 385 443 16,800 1,740 Climbing Cleveland Center
11:28PM 42.1100 -82.4081 98° East 391 450 18,300 1,200 Climbing Cleveland Center
11:29PM 42.0917 -82.2564 99° East 398 458 19,300 1,200 Climbing Cleveland Center
11:30PM 42.0728 -82.1019 99° East 404 465 20,700 1,260 Climbing Cleveland Center
11:31PM 42.0542 -81.9394 99° East 432 497 21,900 1,200 Climbing Cleveland Center
11:32PM 42.0350 -81.7769 99° East 437 503 23,200 1,200 Climbing Cleveland Center
11:33PM 42.0158 -81.6089 99° East 450 518 24,400 1,200 Climbing Cleveland Center
11:34PM 41.9964 -81.4436 99° East 450 518 25,600 1,080 Climbing Cleveland Center
11:35PM 41.9764 -81.2981 100° East 445 512 26,600 960 Climbing Cleveland Center
11:36PM 41.9586 -81.1333 98° East 445 512 27,600 900 Climbing Cleveland Center
11:37PM 41.9364 -80.9683 100° East 450 518 28,500 660 Climbing Cleveland Center
11:38PM 41.9139 -80.8008 100° East 450 518 29,000 240 Climbing Cleveland Center
11:39PM 41.8892 -80.6250 101° East 464 534 29,000  Level Cleveland Center
11:40PM 41.8639 -80.4297 100° East 475 547 29,000  Level Cleveland Center
11:41PM 41.8406 -80.2458 100° East 484 557 29,000  Level Cleveland Center
11:42PM 41.8169 -80.0650 100° East 489 563 29,000  Level Cleveland Center
11:43PM 41.7889 -79.8786 101° East 499 574 29,000  Level Cleveland Center
11:44PM 41.7647 -79.6953 100° East 499 574 29,000  Level Cleveland Center
11:45PM 41.7425 -79.5311 100° East 505 581 29,000  Level Cleveland Center
11:46PM 41.7178 -79.3453 100° East 505 581 29,000  Level Cleveland Center
11:47PM 41.6906 -79.1567 101° East 505 581 29,000  Level Cleveland Center
11:48PM 41.6653 -78.9711 100° East 505 581 29,000  Level Cleveland Center
11:49PM 41.6353 -78.7828 102° East 505 581 29,000  Level Cleveland Center
11:50PM 41.5886 -78.4681 101° East 468 539 29,000  Level New York Center
11:51PM 41.5608 -78.2847 101° East 476 548 29,000  Level New York Center
11:52PM 41.5344 -78.1042 101° East 499 574 29,000  Level New York Center
11:53PM 41.5061 -77.9211 102° East 505 581 29,000  Level New York Center
11:54PM 41.4797 -77.7353 101° East 511 588 29,000  Level New York Center
11:55PM 41.4508 -77.5497 102° East 511 588 29,000  Level New York Center
11:56PM 41.4225 -77.3503 101° East 511 588 29,000  Level New York Center
11:57PM 41.3947 -77.1706 102° East 511 588 29,000  Level New York Center
11:58PM 41.3686 -76.9967 101° East 494 568 29,000  Level New York Center
11:59PM 41.3444 -76.8203 100° East 494 568 29,000 -900 Level New York Center
12:00AM 41.3031 -76.6481 108° East 489 563 27,300 -2,220 Descending New York Center
12:01AM 41.2622 -76.5008 110° East 478 550 24,600 -2,580 Descending New York Center
12:02AM 41.2161 -76.3342 110° East 478 550 22,200 -2,520 Descending New York Center
12:03AM 41.1733 -76.1764 110° East 473 544 19,700 -2,100 Descending New York Center
12:04AM 41.1331 -76.0106 108° East 438 504 18,000 -1,200 Descending New York Center
12:05AM 41.0953 -75.8700 110° East 413 475 17,300 -1,440 Descending New York Center
12:06AM 41.0536 -75.7239 111° Southeast 418 481 15,200 -1,920 Descending New York Center
12:07AM 41.0156 -75.5889 110° East 424 488 13,400 -2,040 Descending New York Center
12:08AM 40.9769 -75.4572 111° Southeast 404 465 11,200 -1,680 Descending New York Center
12:09AM 40.9461 -75.3394 109° East 362 417 10,100 -1,020 Descending New York Center
12:10AM 40.9131 -75.2247 111° Southeast 319 367 9,200 -600 Descending New York Center
12:11AM 40.8836 -75.1214 111° Southeast 298 343 9,000 -120 Descending New York Center
12:12AM 40.8558 -75.0208 110° East 298 343 9,000  Level New York Center
12:13AM 40.8211 -74.9472 122° Southeast 276 318 9,000 -240 Level New York Center
12:14AM 40.7781 -74.8653 125° Southeast 247 284 8,600 -660 Descending New York Center
12:15AM 40.7317 -74.8242 146° Southeast 225 259 7,700 -780 Descending New York Center
12:16AM 40.6792 -74.7744 144° Southeast 215 247 7,100 -360 Descending New York Center
12:17AM 40.6347 -74.7336 145° Southeast 215 247 7,000 -60 Descending New York Center
12:18AM 40.5803 -74.6811 144° Southeast 220 253 7,000 -240 Level New York Center
12:19AM 40.5667 -74.6000 102° East 268 308 6,600 -540 Descending New York TRACON
12:20AM 40.6333 -74.5667 21° North 256 295 6,000 -300 Descending New York TRACON
12:21AM 40.7000 -74.5833 349° North 237 273 6,000  Level New York TRACON
12:22AM 40.7667 -74.5833 360° North 243 280 6,000  Level New York TRACON
12:23AM 40.8333 -74.5667 11° North 241 277 6,100  Climbing New York TRACON
12:24AM 40.8922 -74.5675 359° North 236 272 6,100  Level New York Center
12:26AM 41.0333 -74.5500 North 248 285 6,100  Level New York TRACON
12:27AM 41.1000 -74.5333 11° North 245 282 6,100  Level New York TRACON
12:28AM 41.1667 -74.5167 11° North 247 284 6,100  Level New York TRACON
12:29AM 41.1833 -74.4500 72° East 249 287 6,100 -180 Level New York TRACON
12:30AM 41.1667 -74.3833 108° East 212 244 5,800 -600 Descending New York TRACON
12:31AM 41.1333 -74.3167 124° Southeast 208 239 4,900 -900 Descending New York TRACON
12:32AM 41.1000 -74.2500 124° Southeast 201 231 4,100 -420 Descending New York TRACON
12:33AM 41.0833 -74.1833 108° East 196 226 4,100  Level New York TRACON
12:34AM 41.0500 -74.1333 131° Southeast 184 212 4,100  Level New York TRACON
12:35AM 41.0000 -74.1000 153° Southeast 181 208 4,100 -300 Level New York TRACON
12:36AM 40.9500 -74.0667 153° Southeast 175 201 3,600 -540 Descending New York TRACON